Terminal Aerodrome Forecast
Issued by NWS Central Illinois

Home | Current Version | Previous Version | Text Only | Print | Product List | Glossary On
Versions: 1 2 3 4 5 6 7 8 9 10 11 12 13 14 15 16 17 18 19 20 21 22 23 24 25 26 27 28 29 30
591
FTUS43 KILX 210812 AAC
TAFPIA
TAF AMD
KPIA 210812Z 2108/2206 18009KT P6SM SCT250
      TEMPO 2108/2109 36015KT=

USA.gov is the U.S. government's official web portal to all federal, state and local government web resources and services.